Time;durP1;ratioP1;P1;durP2;ratioP2;P2;SDS_P1;SDS_P2;PMS_P1;PMS_P2;Temp;Humidity;BMP_temperature;BMP_pressure;BME280_temperature;BME280_humidity;BME280_pressure;Samples;Min_cycle;Max_cycle;Signal;HPM_P1;HPM_P2
2023/01/14 00:00:51;;;;;;;48.05;25.52;;;;;;;;;;5117031;28;20147;-75
2023/01/14 00:03:37;;;;;;;47.10;26.58;;;;;;;;;;5101751;28;20016;-74
2023/01/14 00:06:24;;;;;;;44.25;24.88;;;;;;;;;;5118182;28;20031;-75
2023/01/14 00:09:11;;;;;;;43.40;25.27;;;;;;;;;;5102089;28;20024;-73
2023/01/14 00:11:57;;;;;;;46.58;27.23;;;;;;;;;;5102099;28;20460;-74
2023/01/14 00:14:42;;;;;;;47.60;26.42;;;;;;;;;;5102416;28;20034;-73
2023/01/14 00:17:28;;;;;;;47.22;27.08;;;;;;;;;;5102528;28;20055;-76
2023/01/14 00:20:14;;;;;;;44.25;24.80;;;;;;;;;;5117147;28;20088;-74
2023/01/14 00:22:59;;;;;;;50.08;26.50;;;;;;;;;;5116696;28;20023;-75
2023/01/14 00:25:45;;;;;;;45.67;26.40;;;;;;;;;;5116166;28;20023;-73
2023/01/14 00:28:31;;;;;;;53.88;29.00;;;;;;;;;;5101101;28;20107;-75
2023/01/14 00:31:18;;;;;;;52.00;26.02;;;;;;;;;;5116581;28;20541;-74
2023/01/14 00:34:03;;;;;;;47.33;26.42;;;;;;;;;;5116749;28;20072;-75
2023/01/14 00:36:49;;;;;;;52.72;28.50;;;;;;;;;;5116572;28;20061;-74
2023/01/14 00:39:34;;;;;;;49.58;26.92;;;;;;;;;;5116520;28;20388;-74
2023/01/14 00:42:20;;;;;;;63.30;31.58;;;;;;;;;;5115899;28;20473;-74
2023/01/14 00:45:06;;;;;;;59.00;30.88;;;;;;;;;;5102192;28;20115;-73
2023/01/14 00:47:52;;;;;;;48.78;26.83;;;;;;;;;;5116314;28;20023;-74
2023/01/14 00:50:37;;;;;;;45.55;26.08;;;;;;;;;;5102124;28;20028;-74
2023/01/14 00:53:23;;;;;;;43.58;24.95;;;;;;;;;;5116415;28;20431;-74
2023/01/14 00:56:09;;;;;;;40.83;21.88;;;;;;;;;;5116320;28;20031;-75
2023/01/14 00:58:55;;;;;;;43.28;21.08;;;;;;;;;;5117235;28;20417;-74
2023/01/14 01:01:40;;;;;;;41.78;20.88;;;;;;;;;;5116461;28;20125;-74
2023/01/14 01:04:26;;;;;;;44.13;20.52;;;;;;;;;;5117264;28;20024;-73
2023/01/14 01:07:11;;;;;;;46.35;20.73;;;;;;;;;;5115897;28;20466;-74
2023/01/14 01:09:57;;;;;;;46.53;21.45;;;;;;;;;;5100294;28;20153;-73
2023/01/14 01:12:42;;;;;;;47.47;21.23;;;;;;;;;;5115921;28;20012;-74
2023/01/14 01:15:31;;;;;;;51.83;21.98;;;;;;;;;;5115995;28;20108;-74
2023/01/14 01:18:16;;;;;;;46.45;20.98;;;;;;;;;;5115927;28;20106;-75
2023/01/14 01:21:07;;;;;;;50.80;21.90;;;;;;;;;;5101386;28;20012;-73
2023/01/14 01:23:53;;;;;;;54.67;21.98;;;;;;;;;;5101361;28;20451;-75
2023/01/14 01:26:39;;;;;;;51.70;20.88;;;;;;;;;;5101073;28;20492;-73
2023/01/14 01:29:24;;;;;;;49.40;20.40;;;;;;;;;;5116038;28;20049;-73
2023/01/14 01:32:10;;;;;;;51.85;21.35;;;;;;;;;;5114452;28;20020;-74
2023/01/14 01:34:55;;;;;;;47.13;20.25;;;;;;;;;;5116008;28;20035;-73
2023/01/14 01:37:41;;;;;;;57.30;20.88;;;;;;;;;;5116131;28;20026;-73
2023/01/14 01:40:28;;;;;;;49.17;20.33;;;;;;;;;;5115588;28;20504;-75
2023/01/14 01:43:14;;;;;;;45.13;20.55;;;;;;;;;;5115722;28;20081;-74
2023/01/14 01:46:00;;;;;;;47.47;20.75;;;;;;;;;;5115588;28;20124;-76
2023/01/14 01:48:45;;;;;;;50.58;19.52;;;;;;;;;;5099460;28;20059;-74
2023/01/14 01:51:33;;;;;;;46.40;19.98;;;;;;;;;;5100409;28;20079;-73
2023/01/14 01:54:20;;;;;;;43.83;19.40;;;;;;;;;;5100899;28;20016;-73
2023/01/14 01:57:07;;;;;;;43.17;20.27;;;;;;;;;;5115162;28;20076;-73
2023/01/14 01:59:55;;;;;;;48.08;20.98;;;;;;;;;;5116533;28;20341;-74
2023/01/14 02:02:41;;;;;;;42.05;19.17;;;;;;;;;;5115169;28;20436;-73
2023/01/14 02:05:26;;;;;;;46.85;20.13;;;;;;;;;;5115006;28;20028;-75
2023/01/14 02:08:12;;;;;;;46.17;20.33;;;;;;;;;;5115232;28;20114;-74
2023/01/14 02:11:16;;;;;;;43.25;20.48;;;;;;;;;;5100347;28;20026;-74
2023/01/14 02:14:11;;;;;;;46.78;20.92;;;;;;;;;;5112978;28;20007;-74
2023/01/14 02:17:01;;;;;;;42.55;19.42;;;;;;;;;;5115284;28;20062;-73
2023/01/14 02:20:23;;;;;;;45.65;20.15;;;;;;;;;;5099927;28;20076;-74
2023/01/14 02:23:15;;;;;;;39.47;18.02;;;;;;;;;;5012661;28;20029;-75
2023/01/14 02:26:15;;;;;;;37.15;18.67;;;;;;;;;;5114090;28;20024;-74
2023/01/14 02:29:03;;;;;;;39.83;17.92;;;;;;;;;;5099197;28;20020;-73
2023/01/14 02:31:53;;;;;;;37.53;16.60;;;;;;;;;;5099763;28;20027;-74
2023/01/14 02:34:48;;;;;;;35.53;17.33;;;;;;;;;;5099623;28;20047;-73
2023/01/14 02:37:45;;;;;;;38.30;17.63;;;;;;;;;;5099816;28;20019;-73
2023/01/14 02:40:33;;;;;;;34.60;16.88;;;;;;;;;;5114609;28;20024;-73
2023/01/14 02:46:32;;;;;;;36.35;17.55;;;;;;;;;;5114159;28;20032;-73
2023/01/14 02:49:20;;;;;;;37.65;17.60;;;;;;;;;;5099532;28;20027;-74
2023/01/14 02:52:06;;;;;;;39.42;18.35;;;;;;;;;;5115157;28;20088;-75
2023/01/14 02:54:53;;;;;;;39.42;18.02;;;;;;;;;;5115149;28;20023;-74
2023/01/14 02:57:49;;;;;;;34.80;16.67;;;;;;;;;;5099433;28;20015;-74
2023/01/14 03:00:50;;;;;;;35.78;16.63;;;;;;;;;;5110792;28;20388;-74
2023/01/14 03:03:54;;;;;;;38.15;17.17;;;;;;;;;;5079009;28;20111;-74
2023/01/14 03:06:49;;;;;;;33.42;16.42;;;;;;;;;;5093739;28;20448;-74
2023/01/14 03:09:37;;;;;;;39.72;18.48;;;;;;;;;;5097117;28;20032;-74
2023/01/14 03:12:34;;;;;;;39.72;18.70;;;;;;;;;;5082954;28;20024;-73
2023/01/14 03:15:20;;;;;;;40.88;17.67;;;;;;;;;;5097959;28;20081;-72
2023/01/14 03:18:14;;;;;;;36.30;17.95;;;;;;;;;;5085221;28;20027;-75
2023/01/14 03:21:04;;;;;;;37.70;17.48;;;;;;;;;;5097069;28;20360;-76
2023/01/14 03:23:53;;;;;;;38.35;18.35;;;;;;;;;;5097874;28;20027;-73
2023/01/14 03:26:41;;;;;;;38.03;17.02;;;;;;;;;;5096871;28;20356;-74
2023/01/14 03:29:31;;;;;;;35.67;16.40;;;;;;;;;;5097398;28;20024;-74
2023/01/14 03:32:46;;;;;;;34.67;15.98;;;;;;;;;;5096898;28;20012;-75
2023/01/14 03:35:33;;;;;;;32.53;15.85;;;;;;;;;;5093531;28;20056;-74
2023/01/14 03:38:21;;;;;;;31.25;16.40;;;;;;;;;;5100555;28;20031;-74
2023/01/14 03:41:08;;;;;;;32.28;16.27;;;;;;;;;;5098163;28;20024;-74
2023/01/14 03:43:54;;;;;;;33.53;15.75;;;;;;;;;;5097905;28;20017;-73
2023/01/14 03:46:39;;;;;;;35.60;15.88;;;;;;;;;;5095692;28;20035;-74
2023/01/14 03:49:25;;;;;;;34.28;15.73;;;;;;;;;;5096696;28;20074;-74
2023/01/14 03:52:16;;;;;;;37.67;16.80;;;;;;;;;;5082379;28;20026;-74
2023/01/14 03:55:16;;;;;;;32.30;14.50;;;;;;;;;;5096864;28;20016;-74
2023/01/14 03:58:22;;;;;;;28.25;14.93;;;;;;;;;;5082391;28;20016;-75
2023/01/14 04:01:15;;;;;;;31.90;14.88;;;;;;;;;;5104855;28;20487;-75
2023/01/14 04:04:02;;;;;;;32.05;14.27;;;;;;;;;;5101811;28;20040;-75
2023/01/14 04:06:47;;;;;;;31.45;14.70;;;;;;;;;;5119833;28;20101;-74
2023/01/14 04:09:33;;;;;;;29.17;14.55;;;;;;;;;;5119276;28;20085;-75
2023/01/14 04:12:18;;;;;;;31.60;15.45;;;;;;;;;;5116863;28;20030;-75
2023/01/14 04:15:22;;;;;;;33.83;16.50;;;;;;;;;;5117112;28;20095;-75
2023/01/14 04:18:08;;;;;;;29.60;14.77;;;;;;;;;;5117469;28;20030;-73
2023/01/14 04:20:54;;;;;;;29.90;14.98;;;;;;;;;;5117030;28;20399;-74
2023/01/14 04:23:39;;;;;;;31.02;14.90;;;;;;;;;;5117309;28;20061;-76
2023/01/14 04:26:27;;;;;;;25.80;13.65;;;;;;;;;;5117740;28;20066;-74
2023/01/14 04:29:13;;;;;;;33.03;14.70;;;;;;;;;;5101580;28;20024;-75
2023/01/14 04:31:59;;;;;;;31.50;15.02;;;;;;;;;;5117651;28;20019;-74
2023/01/14 04:34:44;;;;;;;32.28;15.88;;;;;;;;;;5101860;28;20103;-75
2023/01/14 04:37:30;;;;;;;34.53;16.58;;;;;;;;;;5116815;28;20445;-75
2023/01/14 04:40:15;;;;;;;31.83;15.48;;;;;;;;;;5116370;28;20031;-75
2023/01/14 04:43:01;;;;;;;31.90;16.52;;;;;;;;;;5117286;28;20019;-75
2023/01/14 04:45:50;;;;;;;34.38;16.25;;;;;;;;;;5103237;28;20110;-74
2023/01/14 04:48:36;;;;;;;35.83;16.17;;;;;;;;;;5102646;28;20029;-74
2023/01/14 04:51:21;;;;;;;32.95;16.73;;;;;;;;;;5115950;28;20023;-75
2023/01/14 04:54:07;;;;;;;35.35;16.33;;;;;;;;;;5117339;28;20034;-74
2023/01/14 04:56:52;;;;;;;32.50;15.98;;;;;;;;;;5116433;28;20446;-74
2023/01/14 04:59:38;;;;;;;36.05;15.73;;;;;;;;;;5115924;28;20024;-75
2023/01/14 05:02:24;;;;;;;32.78;15.73;;;;;;;;;;5115553;28;20051;-74
2023/01/14 05:05:09;;;;;;;35.80;15.63;;;;;;;;;;5115950;28;20080;-73
2023/01/14 05:07:55;;;;;;;30.48;15.05;;;;;;;;;;5102256;28;20034;-74
2023/01/14 05:10:41;;;;;;;30.13;14.68;;;;;;;;;;5115840;28;20396;-75
2023/01/14 05:13:26;;;;;;;28.88;14.68;;;;;;;;;;5115779;28;20058;-73
2023/01/14 05:16:12;;;;;;;31.70;14.68;;;;;;;;;;5116130;28;20020;-74
2023/01/14 05:18:58;;;;;;;32.70;14.43;;;;;;;;;;5116730;28;20099;-74
2023/01/14 05:21:43;;;;;;;34.88;16.20;;;;;;;;;;5116247;28;20475;-74
2023/01/14 05:24:29;;;;;;;37.42;16.58;;;;;;;;;;5115527;28;20043;-73
2023/01/14 05:27:15;;;;;;;32.00;16.02;;;;;;;;;;5115795;28;20110;-74
2023/01/14 05:30:02;;;;;;;43.05;17.65;;;;;;;;;;5114585;28;20027;-73
2023/01/14 05:32:47;;;;;;;38.28;17.77;;;;;;;;;;5115091;28;20432;-74
2023/01/14 05:35:33;;;;;;;36.42;16.90;;;;;;;;;;5101432;28;20038;-74
2023/01/14 05:38:19;;;;;;;40.90;17.67;;;;;;;;;;5100693;28;20106;-73
2023/01/14 05:41:04;;;;;;;37.65;16.95;;;;;;;;;;5116151;28;20443;-74
2023/01/14 05:46:54;;;;;;;32.83;15.60;;;;;;;;;;5115315;28;20024;-74
2023/01/14 05:49:40;;;;;;;36.20;14.90;;;;;;;;;;5115171;28;20476;-75
2023/01/14 05:52:26;;;;;;;34.10;15.10;;;;;;;;;;5116280;28;20015;-74
2023/01/14 05:55:11;;;;;;;34.17;14.75;;;;;;;;;;5115881;28;20012;-74
2023/01/14 05:57:57;;;;;;;36.72;15.95;;;;;;;;;;5116220;28;20034;-75
2023/01/14 06:06:51;;;;;;;43.90;19.38;;;;;;;;;;5116534;28;20038;-74
2023/01/14 06:09:38;;;;;;;44.25;19.60;;;;;;;;;;5116062;28;20462;-75
2023/01/14 06:15:33;;;;;;;38.53;18.35;;;;;;;;;;5116333;28;20019;-74
2023/01/14 06:18:23;;;;;;;40.85;19.10;;;;;;;;;;5115691;28;20024;-74
2023/01/14 06:21:13;;;;;;;33.92;14.98;;;;;;;;;;5100376;28;20019;-74
2023/01/14 06:23:58;;;;;;;35.50;16.33;;;;;;;;;;5101156;28;20082;-74
2023/01/14 06:26:44;;;;;;;33.63;16.38;;;;;;;;;;5100349;28;20026;-73
2023/01/14 06:29:30;;;;;;;37.20;15.73;;;;;;;;;;5117169;28;20016;-75
2023/01/14 06:32:15;;;;;;;32.13;14.98;;;;;;;;;;5105258;28;20012;-74
2023/01/14 06:35:01;;;;;;;32.08;14.23;;;;;;;;;;5117040;28;20348;-73
2023/01/14 06:37:46;;;;;;;30.70;14.57;;;;;;;;;;5102666;28;20073;-74
2023/01/14 06:40:32;;;;;;;34.35;15.98;;;;;;;;;;5117264;28;20356;-74
2023/01/14 06:43:18;;;;;;;33.28;15.25;;;;;;;;;;5121243;28;20031;-74
2023/01/14 06:46:03;;;;;;;33.45;15.48;;;;;;;;;;5105546;28;20031;-75
2023/01/14 06:48:49;;;;;;;39.20;18.13;;;;;;;;;;5123346;28;20374;-74
2023/01/14 06:51:34;;;;;;;39.85;17.52;;;;;;;;;;5121235;28;20023;-75
2023/01/14 06:54:20;;;;;;;40.30;17.05;;;;;;;;;;5119603;28;20083;-74
2023/01/14 06:57:05;;;;;;;41.65;16.92;;;;;;;;;;5122097;28;20015;-75
2023/01/14 06:59:52;;;;;;;48.08;19.10;;;;;;;;;;5119722;28;20016;-74
2023/01/14 07:02:38;;;;;;;41.88;16.95;;;;;;;;;;5102526;28;20052;-76
2023/01/14 07:05:24;;;;;;;45.42;17.27;;;;;;;;;;5119561;28;20102;-75
2023/01/14 07:08:09;;;;;;;45.95;17.67;;;;;;;;;;5118626;28;20030;-76
2023/01/14 07:10:55;;;;;;;46.88;17.65;;;;;;;;;;5119613;28;20020;-75
2023/01/14 07:13:40;;;;;;;44.13;17.85;;;;;;;;;;5120052;28;20095;-75
2023/01/14 07:16:26;;;;;;;39.95;17.02;;;;;;;;;;5120824;28;20012;-75
2023/01/14 07:19:11;;;;;;;48.00;18.15;;;;;;;;;;5122939;28;20027;-73
2023/01/14 07:21:57;;;;;;;44.17;17.90;;;;;;;;;;5105908;28;20028;-74
2023/01/14 07:24:43;;;;;;;53.42;20.05;;;;;;;;;;5119255;28;20081;-73
2023/01/14 07:27:29;;;;;;;56.88;19.20;;;;;;;;;;5118760;28;20016;-73
2023/01/14 07:30:14;;;;;;;53.47;20.10;;;;;;;;;;5119359;28;20042;-72
2023/01/14 07:33:00;;;;;;;51.47;19.83;;;;;;;;;;5118791;28;20047;-74
2023/01/14 07:35:51;;;;;;;48.42;18.75;;;;;;;;;;5104538;28;20020;-73
2023/01/14 07:38:36;;;;;;;51.78;19.80;;;;;;;;;;5118687;28;20085;-74
2023/01/14 07:41:22;;;;;;;49.55;19.13;;;;;;;;;;5119488;28;20020;-73
2023/01/14 07:44:08;;;;;;;48.30;19.08;;;;;;;;;;5119924;28;20084;-73
2023/01/14 07:46:54;;;;;;;48.45;19.60;;;;;;;;;;5119914;28;20051;-73
2023/01/14 07:49:40;;;;;;;47.65;18.80;;;;;;;;;;5118651;28;20020;-73
2023/01/14 07:52:25;;;;;;;47.80;18.33;;;;;;;;;;5103062;28;20110;-73
2023/01/14 07:55:11;;;;;;;43.67;17.27;;;;;;;;;;5116729;28;20081;-74
2023/01/14 07:57:57;;;;;;;49.63;19.85;;;;;;;;;;5117288;28;20335;-73
2023/01/14 08:00:43;;;;;;;52.42;20.65;;;;;;;;;;5117060;28;20106;-75
2023/01/14 08:03:28;;;;;;;51.88;20.33;;;;;;;;;;5103108;28;20059;-74
2023/01/14 08:06:14;;;;;;;53.92;20.77;;;;;;;;;;5103237;28;20455;-74
2023/01/14 08:09:02;;;;;;;53.60;20.52;;;;;;;;;;5103266;28;20027;-74
2023/01/14 08:11:47;;;;;;;50.35;18.65;;;;;;;;;;5117910;28;20023;-74
2023/01/14 08:14:33;;;;;;;57.42;20.25;;;;;;;;;;5117164;28;20044;-74
2023/01/14 08:17:18;;;;;;;51.65;17.92;;;;;;;;;;5102564;28;20341;-75
2023/01/14 08:20:04;;;;;;;49.78;18.42;;;;;;;;;;5118167;28;20051;-75
2023/01/14 08:22:50;;;;;;;53.03;18.73;;;;;;;;;;5115426;28;20042;-74
2023/01/14 08:25:35;;;;;;;51.63;18.23;;;;;;;;;;5102385;28;20337;-75
2023/01/14 08:28:21;;;;;;;55.83;18.30;;;;;;;;;;5117033;28;20035;-74
2023/01/14 08:31:11;;;;;;;49.35;19.00;;;;;;;;;;5117112;28;20030;-75
2023/01/14 08:33:58;;;;;;;52.40;18.83;;;;;;;;;;5101480;28;20359;-76
2023/01/14 08:36:44;;;;;;;47.20;19.05;;;;;;;;;;5117733;28;20405;-74
2023/01/14 08:39:29;;;;;;;70.25;25.15;;;;;;;;;;5117080;28;20019;-74
2023/01/14 08:42:15;;;;;;;60.33;24.30;;;;;;;;;;5116565;28;20023;-75
2023/01/14 08:45:01;;;;;;;63.03;27.75;;;;;;;;;;5102395;28;20053;-75
2023/01/14 08:47:46;;;;;;;69.70;26.90;;;;;;;;;;5101065;28;20019;-73
2023/01/14 08:50:32;;;;;;;74.50;27.73;;;;;;;;;;5117132;28;20417;-74
2023/01/14 08:53:17;;;;;;;68.95;27.02;;;;;;;;;;5120299;28;20084;-75
2023/01/14 08:56:03;;;;;;;68.25;25.85;;;;;;;;;;5102955;28;20008;-74
2023/01/14 08:58:49;;;;;;;61.67;23.42;;;;;;;;;;5121172;28;20435;-74
2023/01/14 09:01:35;;;;;;;60.88;25.25;;;;;;;;;;5121112;28;20074;-73
2023/01/14 09:04:24;;;;;;;70.85;25.63;;;;;;;;;;5119755;28;20020;-76
2023/01/14 09:19:29;;;;;;;63.92;23.85;;;;;;;;;;5117963;28;20020;-76
2023/01/14 09:22:33;;;;;;;64.40;24.83;;;;;;;;;;5120494;28;20108;-73
2023/01/14 09:25:18;;;;;;;60.55;24.10;;;;;;;;;;5116107;28;20024;-76
2023/01/14 09:28:04;;;;;;;71.60;28.13;;;;;;;;;;5101397;28;20034;-75
2023/01/14 09:30:49;;;;;;;64.35;23.73;;;;;;;;;;5115440;28;20019;-75
2023/01/14 09:33:35;;;;;;;59.75;23.40;;;;;;;;;;5116115;28;20026;-75
2023/01/14 09:36:21;;;;;;;67.47;24.55;;;;;;;;;;5100846;28;20328;-74
2023/01/14 09:39:06;;;;;;;71.75;24.08;;;;;;;;;;5100801;28;20019;-75
2023/01/14 09:41:54;;;;;;;61.05;23.00;;;;;;;;;;5100785;28;20432;-74
2023/01/14 09:44:40;;;;;;;69.80;25.10;;;;;;;;;;5102432;28;20023;-75
2023/01/14 09:47:26;;;;;;;68.20;25.38;;;;;;;;;;5115209;28;20020;-75
2023/01/14 09:50:14;;;;;;;63.08;24.40;;;;;;;;;;5114858;28;20026;-75
2023/01/14 09:53:12;;;;;;;62.50;23.88;;;;;;;;;;5115356;28;20016;-75
2023/01/14 09:56:01;;;;;;;65.97;23.88;;;;;;;;;;5114583;28;20016;-75
2023/01/14 09:59:07;;;;;;;60.42;23.70;;;;;;;;;;5114736;28;20088;-75
2023/01/14 10:01:53;;;;;;;81.53;31.15;;;;;;;;;;5114861;28;20062;-75
2023/01/14 10:04:57;;;;;;;76.43;31.52;;;;;;;;;;5114923;28;20402;-75
2023/01/14 10:07:43;;;;;;;71.70;28.40;;;;;;;;;;5100625;28;20031;-75
2023/01/14 10:10:31;;;;;;;64.80;28.67;;;;;;;;;;5113847;28;20108;-75
2023/01/14 10:13:25;;;;;;;71.45;29.75;;;;;;;;;;5100850;28;20030;-75
2023/01/14 10:16:19;;;;;;;76.63;30.95;;;;;;;;;;5114779;28;20055;-75
2023/01/14 10:19:08;;;;;;;73.60;31.23;;;;;;;;;;5099969;28;20074;-74
2023/01/14 10:21:59;;;;;;;74.88;31.38;;;;;;;;;;5115036;28;20084;-75
2023/01/14 10:24:44;;;;;;;75.60;32.60;;;;;;;;;;5114709;28;20015;-74
2023/01/14 10:27:31;;;;;;;66.22;29.30;;;;;;;;;;5114713;28;20341;-76
2023/01/14 10:30:27;;;;;;;65.13;29.85;;;;;;;;;;5115002;28;20043;-76
2023/01/14 10:33:14;;;;;;;71.45;30.63;;;;;;;;;;5113957;28;20356;-75
2023/01/14 10:36:02;;;;;;;70.22;32.38;;;;;;;;;;5115329;28;20015;-76
2023/01/14 10:38:48;;;;;;;75.05;32.95;;;;;;;;;;5114569;28;20144;-75
2023/01/14 10:41:49;;;;;;;74.40;32.53;;;;;;;;;;5116221;28;20029;-75
2023/01/14 10:44:35;;;;;;;58.53;27.30;;;;;;;;;;5114302;28;20447;-75
2023/01/14 10:47:21;;;;;;;57.80;27.15;;;;;;;;;;5115035;28;20035;-74
2023/01/14 10:50:17;;;;;;;60.53;28.45;;;;;;;;;;5113019;28;20020;-75
2023/01/14 10:53:15;;;;;;;55.65;26.58;;;;;;;;;;5114793;28;20046;-73
2023/01/14 10:56:01;;;;;;;53.70;24.95;;;;;;;;;;5115381;28;20081;-75
2023/01/14 10:58:49;;;;;;;52.03;25.05;;;;;;;;;;5115221;28;20366;-75
2023/01/14 11:01:40;;;;;;;50.15;24.33;;;;;;;;;;5114267;28;20043;-75
2023/01/14 11:04:30;;;;;;;45.33;22.38;;;;;;;;;;5099550;28;20444;-75
2023/01/14 11:07:26;;;;;;;41.78;20.15;;;;;;;;;;5114348;28;20447;-75
2023/01/14 11:10:22;;;;;;;38.03;17.30;;;;;;;;;;5114618;28;20098;-75
2023/01/14 11:13:26;;;;;;;37.08;17.77;;;;;;;;;;5113372;28;20030;-75
2023/01/14 11:16:21;;;;;;;36.95;17.42;;;;;;;;;;5112610;28;20102;-75
2023/01/14 11:19:19;;;;;;;34.05;17.33;;;;;;;;;;5114465;28;20015;-76
2023/01/14 11:22:05;;;;;;;38.53;19.92;;;;;;;;;;5114827;28;20024;-75
2023/01/14 11:24:52;;;;;;;36.85;18.42;;;;;;;;;;5113624;28;20098;-75
2023/01/14 11:27:44;;;;;;;36.75;17.90;;;;;;;;;;5114691;28;20020;-76
2023/01/14 11:30:30;;;;;;;32.40;16.83;;;;;;;;;;5118291;28;20023;-75
2023/01/14 11:33:19;;;;;;;36.88;18.55;;;;;;;;;;5116765;28;20020;-75
2023/01/14 11:36:09;;;;;;;37.88;18.23;;;;;;;;;;5117349;28;20019;-75
2023/01/14 11:38:57;;;;;;;36.13;18.10;;;;;;;;;;5102529;28;20042;-74
2023/01/14 11:41:42;;;;;;;32.42;17.92;;;;;;;;;;5116929;28;20019;-75
2023/01/14 11:44:28;;;;;;;31.00;16.52;;;;;;;;;;5117439;28;20513;-75
2023/01/14 11:47:15;;;;;;;39.00;18.73;;;;;;;;;;5118060;28;20366;-75
2023/01/14 11:50:11;;;;;;;35.30;18.05;;;;;;;;;;5117980;28;20015;-75
2023/01/14 11:53:03;;;;;;;32.25;16.98;;;;;;;;;;5101986;28;20020;-75
2023/01/14 11:55:49;;;;;;;34.85;17.75;;;;;;;;;;5120543;28;20027;-75
2023/01/14 11:58:35;;;;;;;33.00;16.95;;;;;;;;;;5123034;28;20035;-76
2023/01/14 12:01:26;;;;;;;30.33;14.82;;;;;;;;;;5120493;28;20113;-74
2023/01/14 12:04:19;;;;;;;31.48;15.05;;;;;;;;;;5117741;28;20019;-74
2023/01/14 12:07:07;;;;;;;32.25;16.00;;;;;;;;;;5117086;28;20038;-74
2023/01/14 12:10:01;;;;;;;33.60;17.25;;;;;;;;;;5120066;28;20048;-75
2023/01/14 12:19:03;;;;;;;35.13;17.52;;;;;;;;;;5117181;28;20038;-75
2023/01/14 12:21:56;;;;;;;31.67;15.95;;;;;;;;;;5116231;28;20068;-75
2023/01/14 12:25:00;;;;;;;31.15;16.40;;;;;;;;;;5119678;28;20106;-74
2023/01/14 12:28:08;;;;;;;30.10;15.57;;;;;;;;;;5115446;28;20023;-75
2023/01/14 12:31:33;;;;;;;35.17;16.73;;;;;;;;;;5116532;28;20439;-75
2023/01/14 12:34:26;;;;;;;36.70;18.17;;;;;;;;;;5014794;28;20065;-73
2023/01/14 12:37:22;;;;;;;36.55;17.77;;;;;;;;;;5015567;28;20459;-75
2023/01/14 12:46:41;;;;;;;32.03;17.20;;;;;;;;;;5116191;28;20378;-75
2023/01/14 12:49:27;;;;;;;32.35;16.40;;;;;;;;;;5101089;28;20023;-75
2023/01/14 12:52:13;;;;;;;31.75;16.95;;;;;;;;;;5100622;28;20347;-75
2023/01/14 12:55:00;;;;;;;34.85;17.70;;;;;;;;;;5117828;28;20451;-75
2023/01/14 12:57:48;;;;;;;33.53;17.45;;;;;;;;;;5101627;28;20377;-75
2023/01/14 13:00:35;;;;;;;36.05;18.92;;;;;;;;;;5118037;28;20083;-76
2023/01/14 13:03:24;;;;;;;36.58;19.10;;;;;;;;;;5118051;28;20050;-74
2023/01/14 13:06:12;;;;;;;33.00;18.63;;;;;;;;;;5120899;28;20023;-75
2023/01/14 13:08:59;;;;;;;34.38;17.65;;;;;;;;;;5114876;28;20023;-75
2023/01/14 13:11:46;;;;;;;34.40;18.67;;;;;;;;;;5114980;28;20016;-75
2023/01/14 13:14:37;;;;;;;35.42;19.55;;;;;;;;;;5116083;28;20016;-75
2023/01/14 13:17:25;;;;;;;35.97;19.75;;;;;;;;;;5116674;28;20385;-76
2023/01/14 13:20:19;;;;;;;34.13;19.00;;;;;;;;;;5116065;28;20358;-76
2023/01/14 13:23:08;;;;;;;34.67;18.08;;;;;;;;;;5115964;28;20023;-75
2023/01/14 13:25:54;;;;;;;37.42;19.02;;;;;;;;;;5101433;28;20053;-76
2023/01/14 13:28:58;;;;;;;40.42;20.27;;;;;;;;;;5101788;28;20053;-75
2023/01/14 13:31:45;;;;;;;39.40;20.70;;;;;;;;;;5113980;28;20019;-76
2023/01/14 13:34:32;;;;;;;46.00;21.55;;;;;;;;;;5115774;28;20446;-76
2023/01/14 13:37:19;;;;;;;47.33;20.67;;;;;;;;;;5100215;28;20110;-76
2023/01/14 13:40:14;;;;;;;42.40;20.30;;;;;;;;;;5116152;28;20019;-75
2023/01/14 13:43:04;;;;;;;41.78;19.95;;;;;;;;;;5116292;28;20069;-75
2023/01/14 13:45:55;;;;;;;41.67;21.48;;;;;;;;;;5115180;28;20462;-74
2023/01/14 13:48:47;;;;;;;38.17;20.13;;;;;;;;;;5113899;28;20024;-75
2023/01/14 13:51:34;;;;;;;32.30;18.20;;;;;;;;;;5114822;28;20012;-75
2023/01/14 13:54:23;;;;;;;34.03;18.65;;;;;;;;;;5115467;28;20043;-76
2023/01/14 13:57:08;;;;;;;32.78;18.27;;;;;;;;;;5124561;28;20011;-75
2023/01/14 13:59:57;;;;;;;34.75;17.65;;;;;;;;;;5110199;28;20028;-75
2023/01/14 14:02:44;;;;;;;30.25;16.50;;;;;;;;;;5127454;28;20528;-74
2023/01/14 14:05:31;;;;;;;32.58;17.70;;;;;;;;;;5123676;28;20077;-74
2023/01/14 14:08:25;;;;;;;36.22;18.02;;;;;;;;;;5104095;28;20015;-75
2023/01/14 14:11:11;;;;;;;34.92;19.80;;;;;;;;;;5114215;28;20015;-75
2023/01/14 14:14:03;;;;;;;35.45;18.88;;;;;;;;;;5114990;28;20044;-75
2023/01/14 14:16:53;;;;;;;37.28;18.08;;;;;;;;;;5114090;28;20015;-75
2023/01/14 14:19:54;;;;;;;35.28;17.90;;;;;;;;;;5115610;28;20398;-75
2023/01/14 14:22:46;;;;;;;35.38;18.48;;;;;;;;;;5116071;28;20011;-75
2023/01/14 14:25:36;;;;;;;35.45;18.80;;;;;;;;;;5110382;28;20030;-75
2023/01/14 14:28:24;;;;;;;37.78;19.05;;;;;;;;;;5101693;28;20462;-76
2023/01/14 14:31:14;;;;;;;40.80;20.92;;;;;;;;;;5116103;28;20024;-74
2023/01/14 14:34:06;;;;;;;34.42;18.45;;;;;;;;;;5114033;28;20440;-77
2023/01/14 14:36:55;;;;;;;36.08;18.55;;;;;;;;;;5099585;28;20016;-77
2023/01/14 14:39:41;;;;;;;40.67;19.90;;;;;;;;;;5115109;28;20356;-76
2023/01/14 14:42:27;;;;;;;39.92;19.90;;;;;;;;;;5100037;28;20019;-76
2023/01/14 14:45:29;;;;;;;43.55;20.90;;;;;;;;;;5114124;28;20121;-77
2023/01/14 14:48:20;;;;;;;40.88;20.40;;;;;;;;;;5100004;28;20027;-76
2023/01/14 14:51:25;;;;;;;37.72;20.98;;;;;;;;;;5114188;28;20511;-76
2023/01/14 14:54:26;;;;;;;35.95;18.48;;;;;;;;;;5098710;28;20020;-77
2023/01/14 14:57:14;;;;;;;36.45;19.33;;;;;;;;;;5114573;28;20027;-76
2023/01/14 15:00:02;;;;;;;38.78;20.05;;;;;;;;;;5114263;28;20020;-77
2023/01/14 15:02:52;;;;;;;32.15;17.15;;;;;;;;;;5115642;28;20050;-76
2023/01/14 15:05:37;;;;;;;31.92;17.52;;;;;;;;;;5119120;28;20092;-75
2023/01/14 15:08:25;;;;;;;40.97;22.50;;;;;;;;;;5103771;28;20032;-75
2023/01/14 15:11:13;;;;;;;44.80;24.48;;;;;;;;;;5118149;28;20448;-75
2023/01/14 15:13:59;;;;;;;44.25;23.83;;;;;;;;;;5118642;28;20027;-76
2023/01/14 15:16:52;;;;;;;44.35;23.90;;;;;;;;;;5104240;28;20327;-75
2023/01/14 15:19:37;;;;;;;46.38;26.02;;;;;;;;;;5118113;28;20462;-75
2023/01/14 15:22:27;;;;;;;46.83;25.73;;;;;;;;;;5103466;28;20098;-77
2023/01/14 15:25:15;;;;;;;49.88;25.70;;;;;;;;;;5118799;28;20034;-77
2023/01/14 15:28:02;;;;;;;43.63;24.92;;;;;;;;;;5118998;28;20024;-76
2023/01/14 15:30:58;;;;;;;48.15;26.30;;;;;;;;;;5102995;28;20152;-77
2023/01/14 15:33:58;;;;;;;45.83;24.88;;;;;;;;;;5103048;28;20088;-75
2023/01/14 15:36:45;;;;;;;41.90;23.92;;;;;;;;;;5103200;28;20099;-76
2023/01/14 15:39:32;;;;;;;43.08;24.02;;;;;;;;;;5102486;28;20020;-75
2023/01/14 15:42:20;;;;;;;46.65;26.35;;;;;;;;;;5102766;28;20019;-77
2023/01/14 15:45:14;;;;;;;45.10;26.45;;;;;;;;;;5117859;28;20026;-75
2023/01/14 15:48:01;;;;;;;39.45;23.02;;;;;;;;;;5101828;28;20023;-78
2023/01/14 15:50:57;;;;;;;42.63;24.13;;;;;;;;;;5118066;28;20015;-77
2023/01/14 15:53:43;;;;;;;45.90;26.33;;;;;;;;;;5117771;28;20051;-76
2023/01/14 15:56:42;;;;;;;44.08;24.80;;;;;;;;;;5112801;28;20165;-76
2023/01/14 15:59:29;;;;;;;44.58;23.77;;;;;;;;;;5118000;28;20023;-76
2023/01/14 16:02:41;;;;;;;46.15;26.85;;;;;;;;;;5102077;28;20079;-77
2023/01/14 16:05:30;;;;;;;54.13;29.27;;;;;;;;;;5102516;28;20026;-76
2023/01/14 16:08:17;;;;;;;50.55;26.98;;;;;;;;;;5102576;28;20423;-77
2023/01/14 16:11:02;;;;;;;43.97;25.52;;;;;;;;;;5103028;28;20020;-76
2023/01/14 16:13:48;;;;;;;47.13;25.85;;;;;;;;;;5118096;28;20460;-76
2023/01/14 16:16:34;;;;;;;41.40;22.65;;;;;;;;;;5116424;28;20028;-76
2023/01/14 16:19:19;;;;;;;37.95;20.88;;;;;;;;;;5103403;28;20444;-74
2023/01/14 16:22:05;;;;;;;35.00;20.15;;;;;;;;;;5117285;28;20024;-75
2023/01/14 16:24:50;;;;;;;37.80;19.85;;;;;;;;;;5116454;28;20019;-76
2023/01/14 16:27:37;;;;;;;39.15;20.52;;;;;;;;;;5117014;28;20016;-75
2023/01/14 16:30:23;;;;;;;41.58;20.98;;;;;;;;;;5116044;28;20235;-75
2023/01/14 16:33:10;;;;;;;38.88;20.20;;;;;;;;;;5102610;28;20168;-75
2023/01/14 16:35:56;;;;;;;37.47;20.63;;;;;;;;;;5116324;28;20024;-75
2023/01/14 16:38:41;;;;;;;39.10;20.00;;;;;;;;;;5116834;28;20456;-75
2023/01/14 16:41:27;;;;;;;40.20;20.65;;;;;;;;;;5116943;28;20028;-75
2023/01/14 16:44:13;;;;;;;41.55;20.90;;;;;;;;;;5102023;28;20376;-76
2023/01/14 16:46:59;;;;;;;41.15;21.60;;;;;;;;;;5103606;28;20028;-76
2023/01/14 16:49:44;;;;;;;38.20;21.08;;;;;;;;;;5117634;28;20016;-75
2023/01/14 16:52:30;;;;;;;37.83;20.17;;;;;;;;;;5117391;28;20016;-76
2023/01/14 16:55:24;;;;;;;34.75;19.73;;;;;;;;;;5103765;28;20012;-80
2023/01/14 16:58:09;;;;;;;34.78;20.15;;;;;;;;;;5101403;28;20072;-77
2023/01/14 17:00:55;;;;;;;35.47;20.58;;;;;;;;;;5118152;28;20100;-77